createdAt,value
2023-03-26T00:00:09.418Z,16.10
2023-03-26T00:02:58.296Z,16.20
2023-03-26T00:05:48.290Z,16.20
2023-03-26T00:08:37.566Z,16.20
2023-03-26T00:11:28.829Z,16.20
2023-03-26T00:14:17.742Z,16.30
2023-03-26T00:17:06.213Z,16.20
2023-03-26T00:19:54.859Z,16.20
2023-03-26T00:22:43.214Z,16.20
2023-03-26T00:25:32.053Z,16.20
2023-03-26T00:28:21.739Z,16.20
2023-03-26T00:31:13.191Z,16.20
2023-03-26T00:34:03.696Z,16.20
2023-03-26T00:36:54.669Z,16.20
2023-03-26T00:39:44.688Z,16.20
2023-03-26T00:42:33.270Z,16.20
2023-03-26T00:45:23.266Z,16.20
2023-03-26T00:48:11.682Z,16.20
2023-03-26T00:50:59.974Z,16.10
2023-03-26T00:53:50.210Z,16.10
2023-03-26T00:56:38.797Z,16.10
2023-03-26T00:59:30.552Z,16.20
2023-03-26T01:02:21.542Z,16.10
2023-03-26T01:05:43.629Z,16.10
2023-03-26T01:08:33.998Z,16.10
2023-03-26T01:11:24.228Z,16.10
2023-03-26T01:14:15.741Z,16.10
2023-03-26T01:17:07.174Z,16.10
2023-03-26T01:20:12.358Z,16.10
2023-03-26T01:23:05.331Z,16.10
2023-03-26T01:26:02.761Z,16.20
2023-03-26T01:28:55.693Z,16.10
2023-03-26T01:31:52.578Z,16.10
2023-03-26T01:34:53.535Z,16.00
2023-03-26T01:37:52.847Z,16.10
2023-03-26T01:40:49.453Z,16.10
2023-03-26T01:43:44.886Z,16.10
2023-03-26T01:46:36.352Z,16.00
2023-03-26T01:49:24.652Z,16.10
2023-03-26T01:52:16.570Z,16.10
2023-03-26T01:55:05.516Z,16.10
2023-03-26T01:58:04.926Z,16.10
2023-03-26T02:01:02.148Z,16.10
2023-03-26T02:03:54.783Z,16.10
2023-03-26T02:06:47.424Z,16.10
2023-03-26T02:09:45.825Z,16.10
2023-03-26T02:12:35.856Z,16.10
2023-03-26T02:15:24.618Z,16.00
2023-03-26T02:18:14.306Z,16.00
2023-03-26T02:21:02.684Z,16.00
2023-03-26T02:24:02.758Z,16.10
2023-03-26T02:26:51.458Z,16.10
2023-03-26T02:29:40.965Z,16.10
2023-03-26T02:32:29.454Z,16.00
2023-03-26T02:35:19.449Z,16.00
2023-03-26T02:38:10.558Z,16.00
2023-03-26T02:40:58.840Z,16.00
2023-03-26T02:43:52.316Z,16.00
2023-03-26T02:46:40.675Z,16.00
2023-03-26T02:49:29.111Z,16.00
2023-03-26T02:52:18.858Z,16.00
2023-03-26T02:55:07.652Z,16.00
2023-03-26T02:57:56.456Z,15.90
2023-03-26T03:00:44.780Z,16.00
2023-03-26T03:03:34.584Z,16.00
2023-03-26T03:06:22.892Z,15.90
2023-03-26T03:09:13.053Z,15.90
2023-03-26T03:12:01.548Z,15.90
2023-03-26T03:14:49.828Z,15.90
2023-03-26T03:17:38.052Z,15.90
2023-03-26T03:20:26.388Z,15.90
2023-03-26T03:23:16.140Z,15.90
2023-03-26T03:26:06.843Z,15.90
2023-03-26T03:28:55.866Z,15.90
2023-03-26T03:31:44.071Z,15.90
2023-03-26T03:34:32.319Z,15.90
2023-03-26T03:37:20.940Z,15.90
2023-03-26T03:40:10.937Z,15.90
2023-03-26T03:43:00.739Z,16.00
2023-03-26T03:45:48.939Z,16.00
2023-03-26T03:48:38.388Z,16.00
2023-03-26T03:51:26.815Z,15.90
2023-03-26T03:54:15.138Z,15.90
2023-03-26T03:57:03.540Z,15.90
2023-03-26T03:59:53.291Z,15.90
2023-03-26T04:02:43.119Z,15.90
2023-03-26T04:05:31.987Z,15.90
2023-03-26T04:08:20.324Z,15.90
2023-03-26T04:11:08.608Z,15.90
2023-03-26T04:13:56.738Z,16.00
2023-03-26T04:16:46.377Z,15.90
2023-03-26T04:19:34.687Z,15.90
2023-03-26T04:22:23.649Z,15.90
2023-03-26T04:25:12.992Z,15.90
2023-03-26T04:28:06.522Z,15.90
2023-03-26T04:30:55.257Z,15.90
2023-03-26T04:33:47.519Z,15.90
2023-03-26T04:36:35.817Z,15.90
2023-03-26T04:39:29.070Z,15.90
2023-03-26T04:42:19.961Z,15.90
2023-03-26T04:45:11.288Z,15.90
2023-03-26T04:47:59.953Z,15.90
2023-03-26T04:50:50.402Z,15.90
2023-03-26T04:53:38.605Z,16.00
2023-03-26T04:56:35.859Z,16.00
2023-03-26T04:59:30.421Z,16.00
2023-03-26T05:02:18.977Z,15.90
2023-03-26T05:05:07.859Z,15.90
2023-03-26T05:07:57.429Z,15.90
2023-03-26T05:10:45.697Z,15.90
2023-03-26T05:13:34.013Z,15.90
2023-03-26T05:16:22.524Z,15.80
2023-03-26T05:19:10.733Z,15.80
2023-03-26T05:21:58.938Z,15.90
2023-03-26T05:24:48.597Z,15.90
2023-03-26T05:27:36.808Z,15.90
2023-03-26T05:30:25.499Z,15.90
2023-03-26T05:33:14.248Z,15.90
2023-03-26T05:36:03.666Z,15.80
2023-03-26T05:38:52.445Z,15.90
2023-03-26T05:41:42.222Z,15.90
2023-03-26T05:44:30.791Z,15.90
2023-03-26T05:47:19.385Z,15.90
2023-03-26T05:50:09.178Z,15.90
2023-03-26T05:52:57.492Z,16.00
2023-03-26T05:55:47.173Z,16.00
2023-03-26T05:58:37.996Z,16.00
2023-03-26T06:01:26.317Z,16.00
2023-03-26T06:04:16.187Z,16.00
2023-03-26T06:07:04.711Z,15.90
2023-03-26T06:09:53.283Z,16.00
2023-03-26T06:12:41.689Z,16.00
2023-03-26T06:15:31.330Z,16.00
2023-03-26T06:18:20.729Z,16.00
2023-03-26T06:21:09.332Z,16.00
2023-03-26T06:23:57.663Z,16.00
2023-03-26T06:26:45.830Z,16.00
2023-03-26T06:29:34.112Z,16.00
2023-03-26T06:32:23.947Z,16.00
2023-03-26T06:35:12.293Z,16.00
2023-03-26T06:38:00.805Z,16.10
2023-03-26T06:40:49.004Z,16.20
2023-03-26T06:43:39.073Z,16.10
2023-03-26T06:46:27.565Z,16.10
2023-03-26T06:49:17.169Z,16.10
2023-03-26T06:52:05.846Z,16.10
2023-03-26T06:54:54.054Z,16.10
2023-03-26T06:57:44.929Z,16.10
2023-03-26T07:00:33.157Z,16.20
2023-03-26T07:03:21.951Z,16.20
2023-03-26T07:06:11.887Z,16.30
2023-03-26T07:09:00.340Z,16.40
2023-03-26T07:11:48.644Z,16.50
2023-03-26T07:14:38.804Z,16.60
2023-03-26T07:17:27.389Z,16.80
2023-03-26T07:20:15.925Z,16.80
2023-03-26T07:23:06.559Z,16.80
2023-03-26T07:25:55.611Z,16.80
2023-03-26T07:29:03.834Z,16.80
2023-03-26T07:31:58.578Z,17.00
2023-03-26T07:34:54.375Z,17.10
2023-03-26T07:37:53.812Z,17.10
2023-03-26T07:40:54.481Z,17.20
2023-03-26T07:43:57.420Z,17.20
2023-03-26T07:46:47.860Z,17.40
2023-03-26T07:49:37.667Z,17.30
2023-03-26T07:52:26.688Z,17.30
2023-03-26T07:55:17.012Z,17.30
2023-03-26T07:58:23.740Z,17.30
2023-03-26T08:01:19.104Z,17.30
2023-03-26T08:04:33.700Z,17.30
2023-03-26T08:07:32.826Z,17.30
2023-03-26T08:10:27.187Z,17.30
2023-03-26T08:13:26.527Z,17.30
2023-03-26T08:16:23.272Z,17.30
2023-03-26T08:19:25.501Z,17.30
2023-03-26T08:22:20.886Z,17.30
2023-03-26T08:25:23.733Z,17.30
2023-03-26T08:28:23.498Z,17.30
2023-03-26T08:31:15.363Z,17.30
2023-03-26T08:34:03.749Z,17.30
2023-03-26T08:36:52.132Z,17.30
2023-03-26T08:39:42.185Z,17.30
2023-03-26T08:43:14.438Z,17.30
2023-03-26T08:46:37.703Z,17.30
2023-03-26T08:50:00.885Z,17.30
2023-03-26T08:53:14.734Z,17.30
2023-03-26T08:56:09.860Z,17.30
2023-03-26T08:59:35.807Z,17.40
2023-03-26T09:03:08.782Z,17.50
2023-03-26T09:06:28.762Z,17.60
2023-03-26T09:09:55.900Z,17.60
2023-03-26T09:13:21.381Z,17.60
2023-03-26T09:16:42.950Z,17.60
2023-03-26T09:20:01.631Z,17.70
2023-03-26T09:23:02.551Z,17.70
2023-03-26T09:26:20.456Z,17.70
2023-03-26T09:29:35.481Z,17.70
2023-03-26T09:32:57.430Z,17.80
2023-03-26T09:36:12.724Z,17.80
2023-03-26T09:39:10.615Z,18.00
2023-03-26T09:42:11.844Z,18.10
2023-03-26T09:45:33.423Z,18.30
2023-03-26T09:48:36.287Z,18.40
2023-03-26T09:51:58.148Z,18.50
2023-03-26T09:55:15.565Z,18.50
2023-03-26T09:58:31.144Z,18.40
2023-03-26T10:01:25.909Z,18.30
2023-03-26T10:04:40.422Z,18.30
2023-03-26T10:07:57.717Z,18.30
2023-03-26T10:10:53.389Z,18.20
2023-03-26T10:13:55.841Z,18.20
2023-03-26T10:16:55.003Z,18.20
2023-03-26T10:19:53.946Z,18.20
2023-03-26T10:22:56.854Z,18.20
2023-03-26T10:26:03.141Z,18.30
2023-03-26T10:29:12.696Z,18.30
2023-03-26T10:32:15.405Z,18.30
2023-03-26T10:35:18.642Z,18.20
2023-03-26T10:38:17.357Z,18.20
2023-03-26T10:41:14.326Z,18.20
2023-03-26T10:44:19.673Z,18.20
2023-03-26T10:47:26.306Z,18.20
2023-03-26T10:50:29.862Z,18.20
2023-03-26T10:53:35.176Z,18.20
2023-03-26T10:56:30.080Z,18.20
2023-03-26T10:59:19.628Z,18.20
2023-03-26T11:02:29.456Z,18.20
2023-03-26T11:05:34.639Z,18.30
2023-03-26T11:08:32.995Z,18.40
2023-03-26T11:11:28.535Z,18.60
2023-03-26T11:14:33.832Z,18.70
2023-03-26T11:17:40.008Z,18.80
2023-03-26T11:20:38.630Z,19.30
2023-03-26T11:23:36.893Z,19.40
2023-03-26T11:26:30.093Z,19.60
2023-03-26T11:29:33.621Z,19.90
2023-03-26T11:32:25.801Z,20.30
2023-03-26T11:35:39.864Z,20.50
2023-03-26T11:38:37.493Z,20.60
2023-03-26T11:41:30.893Z,20.60
2023-03-26T11:44:23.796Z,20.50
2023-03-26T11:47:15.679Z,20.50
2023-03-26T11:50:07.207Z,20.70
2023-03-26T11:52:58.339Z,20.70
2023-03-26T11:55:58.705Z,21.00
2023-03-26T11:58:54.870Z,21.00
2023-03-26T12:01:51.125Z,21.00
2023-03-26T12:04:41.663Z,21.00
2023-03-26T12:07:32.622Z,21.00
2023-03-26T12:10:38.023Z,21.10
2023-03-26T12:13:35.784Z,21.20
2023-03-26T12:16:24.866Z,21.20
2023-03-26T12:19:20.939Z,21.20
2023-03-26T12:22:30.730Z,21.20
2023-03-26T12:25:21.323Z,21.30
2023-03-26T12:28:20.041Z,21.40
2023-03-26T12:31:19.135Z,21.40
2023-03-26T12:34:14.720Z,21.40
2023-03-26T12:37:04.733Z,21.70
2023-03-26T12:40:15.170Z,21.90
2023-03-26T12:44:52.617Z,22.30
2023-03-26T12:47:57.074Z,22.40
2023-03-26T12:49:41.369Z,22.60
2023-03-26T12:52:57.610Z,22.60
2023-03-26T12:55:57.225Z,22.80
2023-03-26T12:59:11.817Z,22.70
2023-03-26T13:02:21.056Z,22.60
2023-03-26T13:05:24.579Z,22.60
2023-03-26T13:08:42.307Z,22.60
2023-03-26T13:11:37.900Z,22.70
2023-03-26T13:14:44.221Z,22.70
2023-03-26T13:17:41.464Z,22.60
2023-03-26T13:20:38.563Z,22.60
2023-03-26T13:23:38.050Z,22.40
2023-03-26T13:26:43.855Z,22.30
2023-03-26T13:29:39.513Z,22.40
2023-03-26T13:32:40.255Z,22.40
2023-03-26T13:35:34.239Z,22.40
2023-03-26T13:38:32.078Z,22.40
2023-03-26T13:41:27.141Z,22.50
2023-03-26T13:44:24.888Z,22.50
2023-03-26T13:47:17.816Z,22.50
2023-03-26T13:50:19.594Z,22.50
2023-03-26T13:53:14.601Z,22.50
2023-03-26T13:56:03.224Z,22.40
2023-03-26T13:58:57.393Z,22.40
2023-03-26T14:01:51.266Z,22.50
2023-03-26T14:04:43.898Z,22.50
2023-03-26T14:07:39.278Z,22.50
2023-03-26T14:10:34.390Z,22.40
2023-03-26T14:13:26.210Z,22.50
2023-03-26T14:16:19.336Z,22.60
2023-03-26T14:19:34.098Z,22.60
2023-03-26T14:22:30.702Z,22.70
2023-03-26T14:25:31.313Z,22.80
2023-03-26T14:28:38.388Z,22.80
2023-03-26T14:31:30.934Z,22.90
2023-03-26T14:34:36.135Z,23.00
2023-03-26T14:37:53.881Z,23.00
2023-03-26T14:40:58.432Z,23.00
2023-03-26T14:44:47.667Z,23.00
2023-03-26T14:47:43.308Z,23.00
2023-03-26T14:50:56.925Z,23.00
2023-03-26T14:53:48.630Z,23.00
2023-03-26T14:56:50.972Z,23.00
2023-03-26T15:00:21.221Z,23.00
2023-03-26T15:03:56.330Z,23.00
2023-03-26T15:07:23.152Z,23.00
2023-03-26T15:10:35.768Z,23.00
2023-03-26T15:13:48.204Z,23.00
2023-03-26T15:17:10.739Z,22.90
2023-03-26T15:20:32.770Z,22.90
2023-03-26T15:23:53.060Z,23.00
2023-03-26T15:27:26.852Z,23.00
2023-03-26T15:31:00.956Z,23.00
2023-03-26T15:34:18.470Z,22.90
2023-03-26T15:37:45.264Z,22.90
2023-03-26T15:40:45.636Z,22.90
2023-03-26T15:44:24.042Z,22.80
2023-03-26T15:47:36.747Z,22.80
2023-03-26T15:50:33.865Z,22.80
2023-03-26T15:53:33.726Z,22.90
2023-03-26T15:56:32.936Z,22.80
2023-03-26T15:59:34.980Z,22.60
2023-03-26T16:02:38.656Z,22.50
2023-03-26T16:05:47.602Z,22.40
2023-03-26T16:08:47.239Z,22.30
2023-03-26T16:11:54.010Z,22.30
2023-03-26T16:14:48.762Z,22.20
2023-03-26T16:18:12.169Z,22.10
2023-03-26T16:21:32.010Z,22.00
2023-03-26T16:24:27.908Z,21.90
2023-03-26T16:27:33.601Z,21.80
2023-03-26T16:30:31.706Z,21.80
2023-03-26T16:33:23.544Z,21.80
2023-03-26T16:36:34.844Z,21.70
2023-03-26T16:39:26.520Z,21.70
2023-03-26T16:42:37.426Z,21.50
2023-03-26T16:45:33.472Z,21.50
2023-03-26T16:48:30.534Z,21.30
2023-03-26T16:51:28.452Z,21.30
2023-03-26T16:54:25.496Z,21.20
2023-03-26T16:57:23.838Z,21.10
2023-03-26T17:00:36.660Z,21.00
2023-03-26T17:03:39.478Z,20.90
2023-03-26T17:07:14.119Z,20.80
2023-03-26T17:10:16.062Z,20.80
2023-03-26T17:13:10.619Z,20.70
2023-03-26T17:16:10.728Z,20.60
2023-03-26T17:19:05.400Z,20.50
2023-03-26T17:22:00.150Z,20.40
2023-03-26T17:24:54.515Z,20.30
2023-03-26T17:27:52.056Z,20.30
2023-03-26T17:31:17.739Z,20.20
2023-03-26T17:34:34.958Z,20.10
2023-03-26T17:37:38.362Z,20.00
2023-03-26T17:40:44.675Z,20.00
2023-03-26T17:43:44.982Z,19.90
2023-03-26T17:46:37.749Z,19.80
2023-03-26T17:49:31.274Z,19.80
2023-03-26T17:52:25.375Z,19.80
2023-03-26T17:55:18.468Z,19.60
2023-03-26T17:58:18.697Z,19.60
2023-03-26T18:01:15.852Z,19.50
2023-03-26T18:04:08.068Z,19.40
2023-03-26T18:07:18.432Z,19.40
2023-03-26T18:10:28.875Z,19.30
2023-03-26T18:13:40.397Z,19.30
2023-03-26T18:16:34.789Z,19.30
2023-03-26T18:19:25.026Z,19.30
2023-03-26T18:22:20.579Z,19.20
2023-03-26T18:25:26.330Z,19.10
2023-03-26T18:28:16.534Z,19.10
2023-03-26T18:31:18.703Z,19.10
2023-03-26T18:34:18.576Z,19.20
2023-03-26T18:37:16.650Z,19.20
2023-03-26T18:40:12.924Z,19.20
2023-03-26T18:43:01.595Z,19.20
2023-03-26T18:45:51.826Z,19.10
2023-03-26T18:48:40.578Z,19.10
2023-03-26T18:51:31.884Z,19.00
2023-03-26T18:54:22.002Z,19.00
2023-03-26T18:57:15.871Z,18.90
2023-03-26T19:00:20.725Z,18.90
2023-03-26T19:03:09.831Z,18.80
2023-03-26T19:05:59.151Z,18.80
2023-03-26T19:08:49.686Z,18.80
2023-03-26T19:11:40.277Z,18.80
2023-03-26T19:14:28.956Z,18.70
2023-03-26T19:17:17.375Z,18.70
2023-03-26T19:20:10.050Z,18.70
2023-03-26T19:22:59.010Z,18.80
2023-03-26T19:25:51.153Z,18.80
2023-03-26T19:28:42.862Z,18.80
2023-03-26T19:31:34.995Z,18.70
2023-03-26T19:34:27.366Z,18.70
2023-03-26T19:37:22.027Z,18.60
2023-03-26T19:40:18.577Z,18.60
2023-03-26T19:43:11.702Z,18.70
2023-03-26T19:46:01.380Z,18.60
2023-03-26T19:48:53.446Z,18.60
2023-03-26T19:51:42.322Z,18.50
2023-03-26T19:54:31.280Z,18.40
2023-03-26T19:57:19.946Z,18.40
2023-03-26T20:00:14.348Z,18.40
2023-03-26T20:03:03.478Z,18.30
2023-03-26T20:05:51.981Z,18.30
2023-03-26T20:08:41.006Z,18.30
2023-03-26T20:11:34.312Z,18.30
2023-03-26T20:14:26.270Z,18.30
2023-03-26T20:17:18.679Z,18.20
2023-03-26T20:20:12.011Z,18.20
2023-03-26T20:23:00.275Z,18.10
2023-03-26T20:25:52.034Z,18.10
2023-03-26T20:28:47.751Z,18.10
2023-03-26T20:31:37.669Z,18.20
2023-03-26T20:34:27.998Z,18.20
2023-03-26T20:37:16.866Z,18.20
2023-03-26T20:40:07.130Z,18.20
2023-03-26T20:42:55.541Z,18.20
2023-03-26T20:45:43.936Z,18.10
2023-03-26T20:48:32.221Z,18.10
2023-03-26T20:51:21.912Z,18.00
2023-03-26T20:54:15.701Z,18.00
2023-03-26T20:57:04.236Z,17.90
2023-03-26T20:59:54.413Z,17.90
2023-03-26T21:02:43.370Z,17.90
2023-03-26T21:05:32.410Z,17.80
2023-03-26T21:08:30.205Z,17.80
2023-03-26T21:11:26.788Z,17.80
2023-03-26T21:14:21.912Z,17.80
2023-03-26T21:17:15.782Z,17.70
2023-03-26T21:20:11.980Z,17.70
2023-03-26T21:23:08.940Z,17.70
2023-03-26T21:26:04.103Z,17.70
2023-03-26T21:28:54.007Z,17.60
2023-03-26T21:31:42.858Z,17.60
2023-03-26T21:34:33.036Z,17.50
2023-03-26T21:37:22.540Z,17.50
2023-03-26T21:40:16.771Z,17.50
2023-03-26T21:43:07.555Z,17.60
2023-03-26T21:45:57.571Z,17.50
2023-03-26T21:48:46.554Z,17.50
2023-03-26T21:51:35.526Z,17.40
2023-03-26T21:54:26.305Z,17.30
2023-03-26T21:57:32.934Z,17.30
2023-03-26T22:00:30.739Z,17.30
2023-03-26T22:03:36.548Z,17.30
2023-03-26T22:06:32.331Z,17.30
2023-03-26T22:09:30.117Z,17.30
2023-03-26T22:12:25.703Z,17.20
2023-03-26T22:15:14.923Z,17.20
2023-03-26T22:18:05.476Z,17.10
2023-03-26T22:20:54.364Z,17.10
2023-03-26T22:23:43.566Z,17.10
2023-03-26T22:26:32.529Z,17.00
2023-03-26T22:29:21.614Z,17.00
2023-03-26T22:32:10.693Z,17.00
2023-03-26T22:35:00.717Z,17.00
2023-03-26T22:37:49.301Z,16.90
2023-03-26T22:40:37.858Z,16.90
2023-03-26T22:43:26.327Z,16.80
2023-03-26T22:46:15.443Z,16.80
2023-03-26T22:49:04.239Z,16.80
2023-03-26T22:51:54.151Z,16.80
2023-03-26T22:54:42.632Z,16.80
2023-03-26T22:57:31.089Z,16.70
2023-03-26T23:00:20.088Z,16.70
2023-03-26T23:03:08.498Z,16.70
2023-03-26T23:05:58.144Z,16.70
2023-03-26T23:08:47.855Z,16.70
2023-03-26T23:11:36.398Z,16.60
2023-03-26T23:14:24.927Z,16.60
2023-03-26T23:17:14.729Z,16.60
2023-03-26T23:20:06.148Z,16.60
2023-03-26T23:22:54.830Z,16.50
2023-03-26T23:25:46.802Z,16.50
2023-03-26T23:28:36.342Z,16.50
2023-03-26T23:31:25.405Z,16.50
2023-03-26T23:34:14.259Z,16.40
2023-03-26T23:37:03.013Z,16.40
2023-03-26T23:39:51.319Z,16.40
2023-03-26T23:42:40.944Z,16.40
2023-03-26T23:45:29.277Z,16.30
2023-03-26T23:48:22.247Z,16.30
2023-03-26T23:51:12.356Z,16.30
2023-03-26T23:54:01.594Z,16.30
2023-03-26T23:56:50.158Z,16.30
2023-03-26T23:59:41.392Z,16.30
